Mount Penn, Pennsylvania
Current Conditions -  °F | °C
As of 10:54 PM on Thursday 20 Nov 2014 (Local Time) from KRDG Reporting Station
Clear Clear  
Wind Chill: 19°   Ceiling: Unl
Heat Index: 27°   Visibility: 10mi
Dew Point:   Wind: 7mph
Humidity: 47%   Direction: 310°NW
Pressure: 30.07"   Gusts: NA
Location:  40.3351°N, 75.8521°W
Report Text: KRDG 210354Z AUTO 31006KT 10SM CLR M03/M13 A3007 RMK AO2 SLP190 T10281128
Loading
Personal Weather Stations






























Interactive Weather Map New forecast layout! Learn more

10-Day Weather Forecast

Advertisements
Track Severe Weather on mobile